KBXA/BXA METAR and TAF weather

Enter ICAO airport designator
Station Type Date Time Source
KBXA METAR 2018/12/12 04:55 UTC NOAA

KBXA 120455Z AUTO 00000KT 10SM CLR 01/00 A3031 RMK AO2 T00061002


Station Type Date Time Source
KBXA Decoded METAR 2018/12/12 04:55 UTC NOAA

Bogalusa, George R Carr Memorial Air Field, LA, United States (KBXA) 30-48-49N 089-51-53W
Dec 11, 2018 - 11:55 PM EST / 2018.12.12 0455 UTC
Wind: Calm:0
Visibility: 10 mile(s):0
Sky conditions: clear
Temperature: 33.1 F (0.6 C)
Dew Point: 31.6 F (-0.2 C)
Relative Humidity: 94%
Pressure (altimeter): 30.31 in. Hg (1026 hPa)
ob: KBXA 120455Z AUTO 00000KT 10SM CLR 01/00 A3031 RMK AO2 T00061002
cycle: 5

Station Type Date Time Source
KBXA TAF UTC NOAA

Error!


Example: see airport list